createdAt,value
2022-08-16T00:04:11.655Z,37.5106
2022-08-16T00:09:12.857Z,37.5477
2022-08-16T00:14:15.159Z,37.59066
2022-08-16T00:19:16.351Z,37.65722
2022-08-16T00:24:32.203Z,37.62735
2022-08-16T00:29:35.482Z,37.69511
2022-08-16T00:34:44.607Z,37.90645
2022-08-16T00:39:58.234Z,37.73766
2022-08-16T00:44:59.631Z,37.95573
2022-08-16T00:50:01.292Z,38.10058
2022-08-16T00:55:02.214Z,38.22627
2022-08-16T01:00:03.130Z,37.87011
2022-08-16T01:05:11.078Z,37.81054
2022-08-16T01:10:16.425Z,37.80506
2022-08-16T01:15:17.954Z,37.76961
2022-08-16T01:20:24.702Z,37.77535
2022-08-16T01:26:33.524Z,37.7393
2022-08-16T01:31:37.612Z,37.18333
2022-08-16T01:36:43.858Z,37.28749
2022-08-16T01:41:46.393Z,37.57254
2022-08-16T01:46:47.329Z,37.15514
2022-08-16T01:56:49.177Z,37.06635
2022-08-16T02:01:52.559Z,37.4484
2022-08-16T02:07:00.406Z,37.62317
2022-08-16T02:12:50.216Z,37.53881
2022-08-16T02:17:53.210Z,37.2191
2022-08-16T02:22:55.313Z,37.43079
2022-08-16T02:27:56.392Z,37.21909
2022-08-16T02:32:57.307Z,37.10339
2022-08-16T02:38:06.060Z,37.19498
2022-08-16T02:43:09.712Z,37.35887
2022-08-16T02:48:29.708Z,37.49282
2022-08-16T02:53:31.961Z,37.55368
2022-08-16T02:58:32.902Z,37.62048
2022-08-16T03:04:29.926Z,37.66301
2022-08-16T03:09:51.136Z,37.7358
2022-08-16T03:14:52.056Z,37.8144
2022-08-16T03:20:02.370Z,37.77885
2022-08-16T03:25:03.961Z,37.77875
2022-08-16T03:30:15.896Z,37.7846
2022-08-16T03:35:18.684Z,37.7668
2022-08-16T03:40:23.281Z,37.7851
2022-08-16T03:45:34.107Z,37.74937
2022-08-16T03:50:35.607Z,37.83394
2022-08-16T03:55:45.612Z,37.82822
2022-08-16T04:00:47.186Z,37.87632
2022-08-16T04:06:00.006Z,37.95463
2022-08-16T04:11:03.365Z,37.97888
2022-08-16T04:16:04.309Z,37.955
2022-08-16T04:21:07.558Z,37.96107
2022-08-16T04:26:16.938Z,37.94953
2022-08-16T04:31:18.608Z,37.91309
2022-08-16T04:36:20.728Z,37.94849
2022-08-16T04:41:32.917Z,37.99629
2022-08-16T04:47:00.890Z,37.99621
2022-08-16T04:52:04.428Z,37.95939
2022-08-16T04:57:33.938Z,38.05481
2022-08-16T05:02:42.335Z,38.06627
2022-08-16T05:07:58.658Z,38.11386
2022-08-16T05:13:01.147Z,38.09492
2022-08-16T05:18:03.898Z,38.23243
2022-08-16T05:23:04.819Z,38.10503
2022-08-16T05:28:07.298Z,38.12867
2022-08-16T05:33:16.493Z,38.25974
2022-08-16T05:38:32.448Z,38.15068
2022-08-16T05:43:43.573Z,37.82411
2022-08-16T05:48:55.218Z,37.84784
2022-08-16T05:54:01.408Z,37.83563
2022-08-16T05:59:02.815Z,37.95468
2022-08-16T06:04:13.507Z,37.33043
2022-08-16T06:09:43.394Z,37.12351
2022-08-16T06:14:45.322Z,37.04053
2022-08-16T06:19:46.692Z,37.05776
2022-08-16T06:24:53.294Z,36.98999
2022-08-16T06:29:56.622Z,36.85063
2022-08-16T06:35:02.304Z,36.63378
2022-08-16T06:40:04.221Z,36.46822
2022-08-16T06:45:05.242Z,35.89712
2022-08-16T06:50:06.994Z,34.00098
2022-08-16T06:55:07.965Z,34.22911
2022-08-16T07:00:22.002Z,34.37841
2022-08-16T07:05:27.201Z,34.31492
2022-08-16T07:10:42.671Z,34.43587
2022-08-16T07:15:50.365Z,34.30486
2022-08-16T07:20:52.174Z,33.32432
2022-08-16T07:25:53.209Z,32.53558
2022-08-16T07:30:55.358Z,32.54116
2022-08-16T07:35:56.972Z,32.78753
2022-08-16T07:41:00.674Z,32.76688
2022-08-16T07:46:02.230Z,32.7026
2022-08-16T07:51:08.921Z,32.68902
2022-08-16T07:56:10.202Z,32.27074
2022-08-16T08:01:12.655Z,30.42334
2022-08-16T08:06:13.933Z,31.07083
2022-08-16T08:11:18.270Z,31.43606
2022-08-16T08:16:19.659Z,31.43883
2022-08-16T08:21:26.200Z,31.34167
2022-08-16T08:26:28.705Z,31.20242
2022-08-16T08:31:30.993Z,31.12348
2022-08-16T08:36:33.526Z,30.97597
2022-08-16T08:41:35.148Z,30.72473
2022-08-16T08:46:36.414Z,30.05556
2022-08-16T08:51:37.377Z,30.03166
2022-08-16T08:56:45.376Z,29.65981
2022-08-16T09:01:57.363Z,26.80967
2022-08-16T09:07:01.419Z,28.03313
2022-08-16T09:12:06.296Z,27.97933
2022-08-16T09:17:12.045Z,27.87566
2022-08-16T09:22:22.711Z,27.66076
2022-08-16T09:27:25.227Z,27.42415
2022-08-16T09:32:30.171Z,27.09136
2022-08-16T09:37:36.375Z,26.64606
2022-08-16T09:42:43.542Z,26.22914
2022-08-16T09:47:58.252Z,25.83393
2022-08-16T09:52:59.649Z,24.6333
2022-08-16T09:58:00.572Z,23.19669
2022-08-16T10:03:01.601Z,23.58667
2022-08-16T10:08:25.512Z,23.56678
2022-08-16T10:13:27.585Z,23.76938
2022-08-16T10:19:00.429Z,23.5411
2022-08-16T10:24:03.428Z,23.06542
2022-08-16T10:29:04.829Z,22.48766
2022-08-16T10:34:06.043Z,22.50013
2022-08-16T10:39:42.071Z,22.10004
2022-08-16T10:44:53.457Z,21.67262
2022-08-16T10:49:54.993Z,21.33159
2022-08-16T10:54:59.057Z,20.82318
2022-08-16T11:00:01.228Z,20.92981
2022-08-16T11:05:07.083Z,20.84511
2022-08-16T11:11:04.591Z,20.90192
2022-08-16T11:16:26.868Z,20.74086
2022-08-16T11:21:28.716Z,20.33586
2022-08-16T11:26:30.799Z,19.87406
2022-08-16T11:31:32.827Z,19.7573
2022-08-16T11:36:33.948Z,19.47506
2022-08-16T11:41:35.011Z,19.55344
2022-08-16T11:46:45.120Z,19.53681
2022-08-16T11:51:47.679Z,19.35282
2022-08-16T11:56:53.054Z,19.3753
2022-08-16T12:01:59.389Z,19.39163
2022-08-16T12:07:01.300Z,19.14111
2022-08-16T12:12:02.993Z,19.0883
2022-08-16T12:17:04.242Z,18.86912
2022-08-16T12:22:05.847Z,18.42165
2022-08-16T12:27:20.754Z,17.98392
2022-08-16T12:32:35.909Z,18.13849
2022-08-16T12:37:39.519Z,17.90082
2022-08-16T12:42:53.029Z,17.2032
2022-08-16T12:48:09.971Z,17.0432
2022-08-16T12:53:31.962Z,16.73852
2022-08-16T12:58:49.551Z,17.36646
2022-08-16T13:03:59.148Z,17.57777
2022-08-16T13:09:09.646Z,17.7399
2022-08-16T13:14:30.933Z,17.75088
2022-08-16T13:19:56.378Z,16.92921
2022-08-16T13:25:07.396Z,16.15501
2022-08-16T13:30:11.338Z,15.85662
2022-08-16T13:35:37.703Z,15.51792
2022-08-16T13:40:44.352Z,14.96037
2022-08-16T13:45:45.534Z,14.35154
2022-08-16T13:50:52.301Z,13.83723
2022-08-16T13:55:58.790Z,13.72902
2022-08-16T14:01:00.285Z,13.35897
2022-08-16T14:06:02.808Z,13.76777
2022-08-16T14:11:03.734Z,13.89897
2022-08-16T14:16:04.965Z,14.11563
2022-08-16T14:21:24.683Z,14.42493
2022-08-16T14:26:25.699Z,14.50469
2022-08-16T14:31:26.684Z,14.51772
2022-08-16T14:36:30.005Z,14.80451
2022-08-16T14:41:31.557Z,15.1354
2022-08-16T14:46:32.600Z,14.96357
2022-08-16T14:51:36.083Z,14.65486
2022-08-16T14:56:43.129Z,14.60121
2022-08-16T15:01:58.062Z,14.08049
2022-08-16T15:07:00.966Z,14.18258
2022-08-16T15:12:01.989Z,14.61163
2022-08-16T15:17:02.970Z,14.85125
2022-08-16T15:22:04.878Z,14.82374
2022-08-16T15:27:05.802Z,14.54228
2022-08-16T15:32:11.941Z,14.23194
2022-08-16T15:37:42.298Z,14.30755
2022-08-16T15:42:44.025Z,14.679
2022-08-16T15:47:55.839Z,14.27123
2022-08-16T15:52:57.716Z,14.4427
2022-08-16T15:57:59.341Z,14.50497
2022-08-16T16:03:00.292Z,14.38741
2022-08-16T16:08:11.243Z,14.46362
2022-08-16T16:13:13.945Z,14.58884
2022-08-16T16:18:14.906Z,14.70888
2022-08-16T16:23:15.883Z,14.92245
2022-08-16T16:29:06.058Z,15.28284
2022-08-16T16:34:10.068Z,15.59584
2022-08-16T16:39:12.101Z,15.779
2022-08-16T16:44:18.191Z,15.94075
2022-08-16T16:49:33.951Z,16.22256
2022-08-16T16:54:34.959Z,16.19622
2022-08-16T16:59:35.844Z,16.57157
2022-08-16T17:04:36.787Z,16.48887
2022-08-16T17:09:40.190Z,16.34183
2022-08-16T17:14:42.654Z,16.82524
2022-08-16T17:19:43.858Z,16.94844
2022-08-16T17:24:50.776Z,17.06413
2022-08-16T17:29:53.834Z,17.02388
2022-08-16T17:34:54.852Z,17.17426
2022-08-16T17:40:06.123Z,17.21826
2022-08-16T17:45:08.986Z,17.87769
2022-08-16T17:50:11.041Z,18.62006
2022-08-16T17:55:13.253Z,19.59532
2022-08-16T18:00:18.321Z,20.15715
2022-08-16T18:05:21.280Z,20.57419
2022-08-16T18:10:32.550Z,20.8357
2022-08-16T18:15:34.691Z,20.88411
2022-08-16T18:20:35.750Z,20.87534
2022-08-16T18:25:36.775Z,21.22064
2022-08-16T18:30:42.674Z,21.73775
2022-08-16T18:35:48.631Z,21.97832
2022-08-16T18:40:54.563Z,22.26087
2022-08-16T18:46:00.558Z,22.59099
2022-08-16T18:51:10.485Z,22.78515
2022-08-16T18:56:20.713Z,22.89271
2022-08-16T19:01:26.723Z,22.88113
2022-08-16T19:06:32.681Z,22.97843
2022-08-16T19:11:38.585Z,23.14991
2022-08-16T19:16:44.519Z,23.14924
2022-08-16T19:21:50.413Z,23.24726
2022-08-16T19:26:56.375Z,23.64588
2022-08-16T19:32:03.133Z,23.82388
2022-08-16T19:37:09.169Z,23.94036
2022-08-16T19:42:10.141Z,23.97622
2022-08-16T19:47:11.073Z,23.96598
2022-08-16T19:52:11.970Z,24.09193
2022-08-16T19:57:12.891Z,24.45162
2022-08-16T20:02:25.608Z,24.83066
2022-08-16T20:07:37.470Z,25.05686
2022-08-16T20:12:38.421Z,25.18278
2022-08-16T20:17:39.489Z,25.31712
2022-08-16T20:22:53.488Z,25.49729
2022-08-16T20:27:54.988Z,25.66525
2022-08-16T20:32:56.025Z,25.82016
2022-08-16T20:37:56.922Z,26.06747
2022-08-16T20:42:58.145Z,26.25367
2022-08-16T20:47:59.312Z,26.37106
2022-08-16T20:53:00.255Z,26.56879
2022-08-16T20:58:01.185Z,26.67451
2022-08-16T21:03:02.136Z,26.80392
2022-08-16T21:08:06.948Z,26.95814
2022-08-16T21:13:52.269Z,27.32235
2022-08-16T21:19:01.109Z,27.56871
2022-08-16T21:24:02.035Z,27.72422
2022-08-16T21:29:02.969Z,27.84881
2022-08-16T21:34:07.628Z,27.96544
2022-08-16T21:39:08.545Z,28.12531
2022-08-16T21:44:09.494Z,28.23683
2022-08-16T21:49:10.551Z,28.46449
2022-08-16T21:54:11.488Z,28.66734
2022-08-16T21:59:12.422Z,28.93156
2022-08-16T22:04:36.824Z,28.89618
2022-08-16T22:09:39.212Z,29.10194
2022-08-16T22:14:40.160Z,29.1368
2022-08-16T22:19:41.111Z,29.03014
2022-08-16T22:24:42.065Z,28.95707
2022-08-16T22:29:43.286Z,29.06203
2022-08-16T22:34:44.219Z,29.1732
2022-08-16T22:39:45.291Z,29.31552
2022-08-16T22:44:46.627Z,29.48127
2022-08-16T22:49:47.904Z,29.56203
2022-08-16T22:54:49.357Z,29.61855
2022-08-16T22:59:52.661Z,29.72981
2022-08-16T23:04:54.674Z,29.87631
2022-08-16T23:09:55.577Z,30.0103
2022-08-16T23:14:56.593Z,30.08363
2022-08-16T23:19:58.105Z,30.20173
2022-08-16T23:24:59.030Z,30.31317
2022-08-16T23:29:59.967Z,30.40617
2022-08-16T23:35:00.882Z,30.44309
2022-08-16T23:40:02.184Z,30.57787
2022-08-16T23:45:03.228Z,30.66346
2022-08-16T23:50:04.401Z,30.79142
2022-08-16T23:55:05.459Z,30.94395
